sensor_id;sensor_type;location;lat;lon;timestamp;P1;durP1;ratioP1;P2;durP2;ratioP2
60038;SDS011;45916;52.734;6.544;2023-05-19T00:01:10;13.32;;;8.38;;
60038;SDS011;45916;52.734;6.544;2023-05-19T00:03:48;14.85;;;8.95;;
60038;SDS011;45916;52.734;6.544;2023-05-19T00:06:18;12.93;;;7.82;;
60038;SDS011;45916;52.734;6.544;2023-05-19T00:08:47;14.23;;;8.15;;
60038;SDS011;45916;52.734;6.544;2023-05-19T00:11:14;15.32;;;8.90;;
60038;SDS011;45916;52.734;6.544;2023-05-19T00:13:39;17.40;;;9.10;;
60038;SDS011;45916;52.734;6.544;2023-05-19T00:16:05;18.95;;;9.35;;
60038;SDS011;45916;52.734;6.544;2023-05-19T00:18:31;14.75;;;8.55;;
60038;SDS011;45916;52.734;6.544;2023-05-19T00:20:57;16.20;;;8.50;;
60038;SDS011;45916;52.734;6.544;2023-05-19T00:23:23;15.00;;;8.90;;
60038;SDS011;45916;52.734;6.544;2023-05-19T00:25:48;17.90;;;8.98;;
60038;SDS011;45916;52.734;6.544;2023-05-19T00:28:15;17.20;;;9.10;;
60038;SDS011;45916;52.734;6.544;2023-05-19T00:30:40;17.65;;;9.48;;
60038;SDS011;45916;52.734;6.544;2023-05-19T00:33:06;18.27;;;9.48;;
60038;SDS011;45916;52.734;6.544;2023-05-19T00:35:32;17.45;;;9.73;;
60038;SDS011;45916;52.734;6.544;2023-05-19T00:37:57;19.85;;;10.90;;
60038;SDS011;45916;52.734;6.544;2023-05-19T00:40:23;16.73;;;9.30;;
60038;SDS011;45916;52.734;6.544;2023-05-19T00:42:49;14.55;;;10.07;;
60038;SDS011;45916;52.734;6.544;2023-05-19T00:45:15;19.60;;;9.80;;
60038;SDS011;45916;52.734;6.544;2023-05-19T00:47:41;16.17;;;9.45;;
60038;SDS011;45916;52.734;6.544;2023-05-19T00:50:06;17.00;;;9.27;;
60038;SDS011;45916;52.734;6.544;2023-05-19T00:52:32;15.32;;;9.73;;
60038;SDS011;45916;52.734;6.544;2023-05-19T00:54:58;13.85;;;9.57;;
60038;SDS011;45916;52.734;6.544;2023-05-19T00:57:24;16.35;;;9.13;;
60038;SDS011;45916;52.734;6.544;2023-05-19T00:59:51;17.10;;;9.52;;
60038;SDS011;45916;52.734;6.544;2023-05-19T01:02:17;18.08;;;9.13;;
60038;SDS011;45916;52.734;6.544;2023-05-19T01:04:42;17.02;;;10.25;;
60038;SDS011;45916;52.734;6.544;2023-05-19T01:07:09;18.63;;;10.27;;
60038;SDS011;45916;52.734;6.544;2023-05-19T01:09:36;16.15;;;10.38;;
60038;SDS011;45916;52.734;6.544;2023-05-19T01:12:02;19.38;;;10.10;;
60038;SDS011;45916;52.734;6.544;2023-05-19T01:14:28;18.38;;;10.90;;
60038;SDS011;45916;52.734;6.544;2023-05-19T01:22:39;18.67;;;11.40;;
60038;SDS011;45916;52.734;6.544;2023-05-19T01:31:13;19.92;;;11.35;;
60038;SDS011;45916;52.734;6.544;2023-05-19T01:33:42;19.25;;;11.18;;
60038;SDS011;45916;52.734;6.544;2023-05-19T01:36:08;19.60;;;12.02;;
60038;SDS011;45916;52.734;6.544;2023-05-19T01:38:38;19.35;;;11.88;;
60038;SDS011;45916;52.734;6.544;2023-05-19T01:41:04;18.90;;;11.38;;
60038;SDS011;45916;52.734;6.544;2023-05-19T01:43:32;23.95;;;11.93;;
60038;SDS011;45916;52.734;6.544;2023-05-19T01:45:58;23.23;;;11.90;;
60038;SDS011;45916;52.734;6.544;2023-05-19T01:48:25;21.35;;;12.77;;
60038;SDS011;45916;52.734;6.544;2023-05-19T01:50:52;17.88;;;11.38;;
60038;SDS011;45916;52.734;6.544;2023-05-19T01:53:21;21.55;;;11.30;;
60038;SDS011;45916;52.734;6.544;2023-05-19T01:55:48;19.35;;;12.25;;
60038;SDS011;45916;52.734;6.544;2023-05-19T01:58:22;20.80;;;12.75;;
60038;SDS011;45916;52.734;6.544;2023-05-19T02:12:31;22.60;;;12.90;;
60038;SDS011;45916;52.734;6.544;2023-05-19T02:15:03;23.77;;;12.93;;
60038;SDS011;45916;52.734;6.544;2023-05-19T02:17:39;22.67;;;13.05;;
60038;SDS011;45916;52.734;6.544;2023-05-19T02:20:07;23.42;;;12.52;;
60038;SDS011;45916;52.734;6.544;2023-05-19T02:22:34;23.02;;;13.45;;
60038;SDS011;45916;52.734;6.544;2023-05-19T02:25:00;20.65;;;12.95;;
60038;SDS011;45916;52.734;6.544;2023-05-19T02:27:26;21.20;;;12.38;;
60038;SDS011;45916;52.734;6.544;2023-05-19T02:29:51;22.02;;;12.38;;
60038;SDS011;45916;52.734;6.544;2023-05-19T02:32:17;24.52;;;12.20;;
60038;SDS011;45916;52.734;6.544;2023-05-19T02:34:44;19.02;;;11.82;;
60038;SDS011;45916;52.734;6.544;2023-05-19T02:37:13;20.05;;;13.82;;
60038;SDS011;45916;52.734;6.544;2023-05-19T02:39:40;25.45;;;14.60;;
60038;SDS011;45916;52.734;6.544;2023-05-19T02:42:06;18.48;;;12.73;;
60038;SDS011;45916;52.734;6.544;2023-05-19T02:44:32;25.15;;;13.80;;
60038;SDS011;45916;52.734;6.544;2023-05-19T02:46:57;24.88;;;13.23;;
60038;SDS011;45916;52.734;6.544;2023-05-19T02:49:23;23.38;;;12.65;;
60038;SDS011;45916;52.734;6.544;2023-05-19T02:51:49;24.67;;;12.27;;
60038;SDS011;45916;52.734;6.544;2023-05-19T02:54:14;25.35;;;14.38;;
60038;SDS011;45916;52.734;6.544;2023-05-19T02:56:40;28.90;;;14.45;;
60038;SDS011;45916;52.734;6.544;2023-05-19T02:59:06;25.17;;;13.55;;
60038;SDS011;45916;52.734;6.544;2023-05-19T03:01:31;27.50;;;13.38;;
60038;SDS011;45916;52.734;6.544;2023-05-19T03:03:57;22.35;;;14.32;;
60038;SDS011;45916;52.734;6.544;2023-05-19T03:06:23;25.13;;;14.90;;
60038;SDS011;45916;52.734;6.544;2023-05-19T03:08:49;26.15;;;15.25;;
60038;SDS011;45916;52.734;6.544;2023-05-19T03:11:15;32.47;;;15.23;;
60038;SDS011;45916;52.734;6.544;2023-05-19T03:13:41;25.02;;;14.02;;
60038;SDS011;45916;52.734;6.544;2023-05-19T03:16:07;24.60;;;14.18;;
60038;SDS011;45916;52.734;6.544;2023-05-19T03:18:33;29.38;;;14.80;;
60038;SDS011;45916;52.734;6.544;2023-05-19T03:20:59;27.23;;;13.35;;
60038;SDS011;45916;52.734;6.544;2023-05-19T03:23:25;22.83;;;13.27;;
60038;SDS011;45916;52.734;6.544;2023-05-19T03:25:51;26.58;;;14.43;;
60038;SDS011;45916;52.734;6.544;2023-05-19T03:28:20;25.77;;;14.50;;
60038;SDS011;45916;52.734;6.544;2023-05-19T03:30:47;21.83;;;13.55;;
60038;SDS011;45916;52.734;6.544;2023-05-19T03:33:14;28.42;;;14.85;;
60038;SDS011;45916;52.734;6.544;2023-05-19T03:35:40;24.75;;;13.52;;
60038;SDS011;45916;52.734;6.544;2023-05-19T03:38:06;24.58;;;15.32;;
60038;SDS011;45916;52.734;6.544;2023-05-19T03:40:31;24.10;;;13.48;;
60038;SDS011;45916;52.734;6.544;2023-05-19T03:42:57;23.52;;;13.50;;
60038;SDS011;45916;52.734;6.544;2023-05-19T03:45:25;24.63;;;14.75;;
60038;SDS011;45916;52.734;6.544;2023-05-19T03:47:50;22.10;;;13.70;;
60038;SDS011;45916;52.734;6.544;2023-05-19T03:50:16;22.30;;;13.75;;
60038;SDS011;45916;52.734;6.544;2023-05-19T03:52:42;22.55;;;14.15;;
60038;SDS011;45916;52.734;6.544;2023-05-19T03:55:12;26.30;;;15.23;;
60038;SDS011;45916;52.734;6.544;2023-05-19T03:57:39;20.13;;;12.00;;
60038;SDS011;45916;52.734;6.544;2023-05-19T04:00:05;24.33;;;12.95;;
60038;SDS011;45916;52.734;6.544;2023-05-19T04:02:32;23.90;;;14.57;;
60038;SDS011;45916;52.734;6.544;2023-05-19T04:04:58;22.02;;;13.15;;
60038;SDS011;45916;52.734;6.544;2023-05-19T04:07:23;20.55;;;14.52;;
60038;SDS011;45916;52.734;6.544;2023-05-19T04:09:49;21.52;;;13.52;;
60038;SDS011;45916;52.734;6.544;2023-05-19T04:12:15;21.83;;;13.00;;
60038;SDS011;45916;52.734;6.544;2023-05-19T04:14:41;23.40;;;12.77;;
60038;SDS011;45916;52.734;6.544;2023-05-19T04:17:06;22.30;;;12.80;;
60038;SDS011;45916;52.734;6.544;2023-05-19T04:19:32;21.10;;;13.85;;
60038;SDS011;45916;52.734;6.544;2023-05-19T04:21:58;20.45;;;12.80;;
60038;SDS011;45916;52.734;6.544;2023-05-19T04:24:24;21.13;;;12.52;;
60038;SDS011;45916;52.734;6.544;2023-05-19T04:26:50;24.20;;;13.20;;
60038;SDS011;45916;52.734;6.544;2023-05-19T04:29:16;24.52;;;13.48;;
60038;SDS011;45916;52.734;6.544;2023-05-19T04:31:44;20.92;;;12.65;;
60038;SDS011;45916;52.734;6.544;2023-05-19T04:34:10;24.70;;;14.07;;
60038;SDS011;45916;52.734;6.544;2023-05-19T04:36:35;20.45;;;12.77;;
60038;SDS011;45916;52.734;6.544;2023-05-19T04:39:01;21.45;;;12.73;;
60038;SDS011;45916;52.734;6.544;2023-05-19T04:41:31;21.35;;;13.32;;
60038;SDS011;45916;52.734;6.544;2023-05-19T04:43:58;20.25;;;12.80;;
60038;SDS011;45916;52.734;6.544;2023-05-19T04:46:24;20.25;;;13.00;;
60038;SDS011;45916;52.734;6.544;2023-05-19T04:48:51;20.58;;;12.70;;
60038;SDS011;45916;52.734;6.544;2023-05-19T04:51:19;19.13;;;13.30;;
60038;SDS011;45916;52.734;6.544;2023-05-19T04:53:45;21.77;;;12.50;;
60038;SDS011;45916;52.734;6.544;2023-05-19T04:56:10;23.27;;;14.90;;
60038;SDS011;45916;52.734;6.544;2023-05-19T04:58:39;26.10;;;15.35;;
60038;SDS011;45916;52.734;6.544;2023-05-19T05:01:06;21.25;;;12.73;;
60038;SDS011;45916;52.734;6.544;2023-05-19T05:03:33;22.97;;;12.50;;
60038;SDS011;45916;52.734;6.544;2023-05-19T05:05:59;21.52;;;11.85;;
60038;SDS011;45916;52.734;6.544;2023-05-19T05:08:25;20.15;;;10.32;;
60038;SDS011;45916;52.734;6.544;2023-05-19T05:10:51;18.48;;;10.82;;
60038;SDS011;45916;52.734;6.544;2023-05-19T05:13:20;13.50;;;8.05;;
60038;SDS011;45916;52.734;6.544;2023-05-19T05:15:48;13.10;;;8.98;;
60038;SDS011;45916;52.734;6.544;2023-05-19T05:18:16;12.70;;;8.32;;
60038;SDS011;45916;52.734;6.544;2023-05-19T05:20:42;14.63;;;8.05;;
60038;SDS011;45916;52.734;6.544;2023-05-19T05:23:09;13.35;;;7.63;;
60038;SDS011;45916;52.734;6.544;2023-05-19T05:25:38;10.90;;;7.55;;
60038;SDS011;45916;52.734;6.544;2023-05-19T05:28:08;12.57;;;7.15;;
60038;SDS011;45916;52.734;6.544;2023-05-19T05:30:34;11.43;;;7.38;;
60038;SDS011;45916;52.734;6.544;2023-05-19T05:33:00;12.00;;;7.07;;
60038;SDS011;45916;52.734;6.544;2023-05-19T05:35:26;12.38;;;7.20;;
60038;SDS011;45916;52.734;6.544;2023-05-19T05:37:52;11.82;;;6.85;;
60038;SDS011;45916;52.734;6.544;2023-05-19T05:40:18;9.32;;;6.50;;
60038;SDS011;45916;52.734;6.544;2023-05-19T05:42:44;8.80;;;6.32;;
60038;SDS011;45916;52.734;6.544;2023-05-19T05:45:10;10.45;;;5.82;;
60038;SDS011;45916;52.734;6.544;2023-05-19T05:47:35;8.65;;;5.72;;
60038;SDS011;45916;52.734;6.544;2023-05-19T05:50:03;12.13;;;6.80;;
60038;SDS011;45916;52.734;6.544;2023-05-19T05:52:32;9.48;;;6.03;;
60038;SDS011;45916;52.734;6.544;2023-05-19T05:55:04;8.63;;;5.93;;
60038;SDS011;45916;52.734;6.544;2023-05-19T05:57:30;8.98;;;5.72;;
60038;SDS011;45916;52.734;6.544;2023-05-19T05:59:59;10.00;;;5.22;;
60038;SDS011;45916;52.734;6.544;2023-05-19T06:02:25;11.98;;;6.03;;
60038;SDS011;45916;52.734;6.544;2023-05-19T06:04:52;11.23;;;6.43;;
60038;SDS011;45916;52.734;6.544;2023-05-19T06:07:18;10.18;;;5.80;;
60038;SDS011;45916;52.734;6.544;2023-05-19T06:09:44;9.02;;;5.85;;
60038;SDS011;45916;52.734;6.544;2023-05-19T06:12:10;7.22;;;5.30;;
60038;SDS011;45916;52.734;6.544;2023-05-19T06:14:35;10.05;;;5.65;;
60038;SDS011;45916;52.734;6.544;2023-05-19T06:17:01;9.98;;;5.30;;
60038;SDS011;45916;52.734;6.544;2023-05-19T06:19:27;12.63;;;5.70;;
60038;SDS011;45916;52.734;6.544;2023-05-19T06:21:52;8.23;;;4.93;;
60038;SDS011;45916;52.734;6.544;2023-05-19T06:27:17;6.60;;;4.45;;
60038;SDS011;45916;52.734;6.544;2023-05-19T06:29:42;7.90;;;4.72;;
60038;SDS011;45916;52.734;6.544;2023-05-19T06:32:08;10.02;;;4.60;;
60038;SDS011;45916;52.734;6.544;2023-05-19T06:34:34;8.40;;;5.07;;
60038;SDS011;45916;52.734;6.544;2023-05-19T06:36:59;7.82;;;4.72;;
60038;SDS011;45916;52.734;6.544;2023-05-19T06:39:26;9.65;;;4.55;;
60038;SDS011;45916;52.734;6.544;2023-05-19T06:41:52;8.30;;;4.32;;
60038;SDS011;45916;52.734;6.544;2023-05-19T06:44:17;6.80;;;3.80;;
60038;SDS011;45916;52.734;6.544;2023-05-19T06:46:43;9.98;;;4.97;;
60038;SDS011;45916;52.734;6.544;2023-05-19T06:49:09;8.57;;;3.90;;
60038;SDS011;45916;52.734;6.544;2023-05-19T06:51:35;6.80;;;4.30;;
60038;SDS011;45916;52.734;6.544;2023-05-19T06:54:01;8.23;;;4.22;;
60038;SDS011;45916;52.734;6.544;2023-05-19T06:56:29;7.65;;;4.20;;
60038;SDS011;45916;52.734;6.544;2023-05-19T06:58:55;9.43;;;4.50;;
60038;SDS011;45916;52.734;6.544;2023-05-19T07:01:21;7.60;;;3.75;;
60038;SDS011;45916;52.734;6.544;2023-05-19T07:03:46;8.75;;;4.30;;
60038;SDS011;45916;52.734;6.544;2023-05-19T07:06:12;7.10;;;3.85;;
60038;SDS011;45916;52.734;6.544;2023-05-19T07:08:38;9.02;;;4.07;;
60038;SDS011;45916;52.734;6.544;2023-05-19T07:11:04;7.70;;;4.25;;
60038;SDS011;45916;52.734;6.544;2023-05-19T07:13:29;7.32;;;3.58;;
60038;SDS011;45916;52.734;6.544;2023-05-19T07:15:56;6.82;;;3.75;;
60038;SDS011;45916;52.734;6.544;2023-05-19T07:18:22;8.60;;;4.15;;
60038;SDS011;45916;52.734;6.544;2023-05-19T07:20:50;7.47;;;3.85;;
60038;SDS011;45916;52.734;6.544;2023-05-19T07:23:17;8.63;;;3.53;;
60038;SDS011;45916;52.734;6.544;2023-05-19T07:25:46;8.45;;;3.38;;
60038;SDS011;45916;52.734;6.544;2023-05-19T07:28:12;7.57;;;3.67;;
60038;SDS011;45916;52.734;6.544;2023-05-19T07:30:37;11.55;;;3.35;;
60038;SDS011;45916;52.734;6.544;2023-05-19T07:33:03;7.20;;;3.20;;
60038;SDS011;45916;52.734;6.544;2023-05-19T07:35:29;7.72;;;3.28;;
60038;SDS011;45916;52.734;6.544;2023-05-19T07:37:55;8.10;;;3.35;;
60038;SDS011;45916;52.734;6.544;2023-05-19T07:40:20;9.02;;;3.47;;
60038;SDS011;45916;52.734;6.544;2023-05-19T07:42:47;6.70;;;3.35;;
60038;SDS011;45916;52.734;6.544;2023-05-19T07:45:13;8.27;;;3.53;;
60038;SDS011;45916;52.734;6.544;2023-05-19T07:47:39;9.10;;;3.35;;
60038;SDS011;45916;52.734;6.544;2023-05-19T07:50:05;7.03;;;2.90;;
60038;SDS011;45916;52.734;6.544;2023-05-19T07:52:31;6.78;;;3.33;;
60038;SDS011;45916;52.734;6.544;2023-05-19T07:54:57;8.30;;;3.85;;
60038;SDS011;45916;52.734;6.544;2023-05-19T07:57:23;7.70;;;3.28;;
60038;SDS011;45916;52.734;6.544;2023-05-19T07:59:49;8.75;;;2.92;;
60038;SDS011;45916;52.734;6.544;2023-05-19T08:02:15;7.70;;;3.45;;
60038;SDS011;45916;52.734;6.544;2023-05-19T08:04:41;8.18;;;3.40;;
60038;SDS011;45916;52.734;6.544;2023-05-19T08:07:06;7.15;;;3.17;;
60038;SDS011;45916;52.734;6.544;2023-05-19T08:09:32;7.72;;;3.33;;
60038;SDS011;45916;52.734;6.544;2023-05-19T08:11:58;7.13;;;2.90;;
60038;SDS011;45916;52.734;6.544;2023-05-19T08:14:25;6.65;;;2.72;;
60038;SDS011;45916;52.734;6.544;2023-05-19T08:16:51;6.97;;;2.60;;
60038;SDS011;45916;52.734;6.544;2023-05-19T08:19:17;5.70;;;3.20;;
60038;SDS011;45916;52.734;6.544;2023-05-19T08:21:42;7.97;;;2.80;;
60038;SDS011;45916;52.734;6.544;2023-05-19T08:24:08;7.20;;;2.75;;
60038;SDS011;45916;52.734;6.544;2023-05-19T08:26:35;8.40;;;3.08;;
60038;SDS011;45916;52.734;6.544;2023-05-19T08:29:01;6.03;;;2.50;;
60038;SDS011;45916;52.734;6.544;2023-05-19T08:31:26;6.80;;;2.90;;
60038;SDS011;45916;52.734;6.544;2023-05-19T08:33:52;9.07;;;3.13;;
60038;SDS011;45916;52.734;6.544;2023-05-19T08:36:18;8.52;;;2.90;;
60038;SDS011;45916;52.734;6.544;2023-05-19T08:38:43;5.65;;;2.78;;
60038;SDS011;45916;52.734;6.544;2023-05-19T08:41:09;7.45;;;3.28;;
60038;SDS011;45916;52.734;6.544;2023-05-19T08:43:35;7.35;;;2.95;;
60038;SDS011;45916;52.734;6.544;2023-05-19T08:46:01;6.47;;;2.90;;
60038;SDS011;45916;52.734;6.544;2023-05-19T08:53:35;8.95;;;2.75;;
60038;SDS011;45916;52.734;6.544;2023-05-19T08:56:05;7.40;;;2.58;;
60038;SDS011;45916;52.734;6.544;2023-05-19T08:58:39;7.18;;;2.72;;
60038;SDS011;45916;52.734;6.544;2023-05-19T09:01:07;8.45;;;2.80;;
60038;SDS011;45916;52.734;6.544;2023-05-19T09:03:34;8.82;;;3.45;;
60038;SDS011;45916;52.734;6.544;2023-05-19T09:08:32;6.63;;;2.40;;
60038;SDS011;45916;52.734;6.544;2023-05-19T09:10:59;8.97;;;3.20;;
60038;SDS011;45916;52.734;6.544;2023-05-19T09:13:25;10.25;;;2.60;;
60038;SDS011;45916;52.734;6.544;2023-05-19T09:15:51;5.22;;;2.50;;
60038;SDS011;45916;52.734;6.544;2023-05-19T09:18:20;9.32;;;3.33;;
60038;SDS011;45916;52.734;6.544;2023-05-19T09:20:45;5.13;;;2.30;;
60038;SDS011;45916;52.734;6.544;2023-05-19T09:23:15;6.63;;;3.22;;
60038;SDS011;45916;52.734;6.544;2023-05-19T09:25:51;6.88;;;2.80;;
60038;SDS011;45916;52.734;6.544;2023-05-19T09:28:24;6.32;;;2.42;;
60038;SDS011;45916;52.734;6.544;2023-05-19T09:30:58;7.60;;;3.10;;
60038;SDS011;45916;52.734;6.544;2023-05-19T09:33:24;7.32;;;2.90;;
60038;SDS011;45916;52.734;6.544;2023-05-19T09:35:52;8.45;;;2.85;;
60038;SDS011;45916;52.734;6.544;2023-05-19T09:38:19;6.45;;;2.50;;
60038;SDS011;45916;52.734;6.544;2023-05-19T09:40:47;8.57;;;2.97;;
60038;SDS011;45916;52.734;6.544;2023-05-19T09:43:13;5.72;;;2.50;;
60038;SDS011;45916;52.734;6.544;2023-05-19T09:45:38;11.15;;;3.20;;
60038;SDS011;45916;52.734;6.544;2023-05-19T09:48:04;7.85;;;2.90;;
60038;SDS011;45916;52.734;6.544;2023-05-19T09:50:31;6.38;;;2.45;;
60038;SDS011;45916;52.734;6.544;2023-05-19T09:52:57;6.80;;;2.42;;
60038;SDS011;45916;52.734;6.544;2023-05-19T09:55:24;5.97;;;2.28;;
60038;SDS011;45916;52.734;6.544;2023-05-19T09:57:58;7.25;;;2.42;;
60038;SDS011;45916;52.734;6.544;2023-05-19T10:00:28;6.45;;;3.08;;
60038;SDS011;45916;52.734;6.544;2023-05-19T10:02:56;6.15;;;3.15;;
60038;SDS011;45916;52.734;6.544;2023-05-19T10:05:24;8.73;;;2.78;;
60038;SDS011;45916;52.734;6.544;2023-05-19T10:07:52;8.30;;;3.03;;
60038;SDS011;45916;52.734;6.544;2023-05-19T10:10:19;5.85;;;2.90;;
60038;SDS011;45916;52.734;6.544;2023-05-19T10:12:46;9.40;;;3.35;;
60038;SDS011;45916;52.734;6.544;2023-05-19T10:15:13;7.03;;;3.40;;
60038;SDS011;45916;52.734;6.544;2023-05-19T10:17:40;6.75;;;3.08;;
60038;SDS011;45916;52.734;6.544;2023-05-19T10:20:07;8.95;;;3.22;;
60038;SDS011;45916;52.734;6.544;2023-05-19T10:22:35;8.82;;;3.65;;
60038;SDS011;45916;52.734;6.544;2023-05-19T10:25:05;8.00;;;3.53;;
60038;SDS011;45916;52.734;6.544;2023-05-19T10:27:33;7.75;;;3.00;;
60038;SDS011;45916;52.734;6.544;2023-05-19T10:30:07;8.38;;;2.85;;
60038;SDS011;45916;52.734;6.544;2023-05-19T10:32:39;8.10;;;3.17;;
60038;SDS011;45916;52.734;6.544;2023-05-19T10:38:21;9.00;;;3.67;;
60038;SDS011;45916;52.734;6.544;2023-05-19T10:41:06;7.60;;;3.35;;
60038;SDS011;45916;52.734;6.544;2023-05-19T10:43:45;9.52;;;3.70;;
60038;SDS011;45916;52.734;6.544;2023-05-19T10:46:26;7.20;;;2.72;;
60038;SDS011;45916;52.734;6.544;2023-05-19T10:48:53;7.45;;;3.03;;
60038;SDS011;45916;52.734;6.544;2023-05-19T10:51:19;6.82;;;3.40;;
60038;SDS011;45916;52.734;6.544;2023-05-19T10:53:45;7.30;;;3.35;;
60038;SDS011;45916;52.734;6.544;2023-05-19T10:58:54;7.05;;;2.90;;
60038;SDS011;45916;52.734;6.544;2023-05-19T11:01:20;7.03;;;2.92;;
60038;SDS011;45916;52.734;6.544;2023-05-19T11:03:54;8.25;;;3.22;;
60038;SDS011;45916;52.734;6.544;2023-05-19T11:08:54;8.13;;;3.08;;
60038;SDS011;45916;52.734;6.544;2023-05-19T11:11:47;7.25;;;2.83;;
60038;SDS011;45916;52.734;6.544;2023-05-19T11:14:19;6.57;;;3.35;;
60038;SDS011;45916;52.734;6.544;2023-05-19T11:16:51;7.43;;;3.10;;
60038;SDS011;45916;52.734;6.544;2023-05-19T11:19:24;6.63;;;2.80;;
60038;SDS011;45916;52.734;6.544;2023-05-19T11:21:52;6.70;;;3.05;;
60038;SDS011;45916;52.734;6.544;2023-05-19T11:24:35;6.18;;;2.85;;
60038;SDS011;45916;52.734;6.544;2023-05-19T11:27:18;6.65;;;3.15;;
60038;SDS011;45916;52.734;6.544;2023-05-19T11:29:44;7.97;;;3.20;;
60038;SDS011;45916;52.734;6.544;2023-05-19T11:32:12;8.63;;;3.85;;
60038;SDS011;45916;52.734;6.544;2023-05-19T11:34:38;7.80;;;3.30;;
60038;SDS011;45916;52.734;6.544;2023-05-19T11:37:05;7.72;;;3.10;;
60038;SDS011;45916;52.734;6.544;2023-05-19T11:39:31;7.68;;;2.75;;
60038;SDS011;45916;52.734;6.544;2023-05-19T11:41:57;6.07;;;3.30;;
60038;SDS011;45916;52.734;6.544;2023-05-19T11:44:23;8.45;;;3.35;;
60038;SDS011;45916;52.734;6.544;2023-05-19T11:46:48;8.32;;;3.33;;
60038;SDS011;45916;52.734;6.544;2023-05-19T11:49:14;9.30;;;3.03;;
60038;SDS011;45916;52.734;6.544;2023-05-19T11:51:43;8.35;;;3.22;;
60038;SDS011;45916;52.734;6.544;2023-05-19T11:54:10;8.13;;;2.95;;
60038;SDS011;45916;52.734;6.544;2023-05-19T11:56:39;6.38;;;3.25;;
60038;SDS011;45916;52.734;6.544;2023-05-19T11:59:09;6.88;;;3.30;;
60038;SDS011;45916;52.734;6.544;2023-05-19T12:01:35;7.43;;;3.22;;
60038;SDS011;45916;52.734;6.544;2023-05-19T12:04:01;9.90;;;3.20;;
60038;SDS011;45916;52.734;6.544;2023-05-19T12:06:32;7.97;;;2.72;;
60038;SDS011;45916;52.734;6.544;2023-05-19T12:08:58;7.97;;;3.47;;
60038;SDS011;45916;52.734;6.544;2023-05-19T12:11:26;7.93;;;2.78;;
60038;SDS011;45916;52.734;6.544;2023-05-19T12:13:53;9.13;;;3.15;;
60038;SDS011;45916;52.734;6.544;2023-05-19T12:16:22;7.40;;;3.08;;
60038;SDS011;45916;52.734;6.544;2023-05-19T12:18:56;7.35;;;3.10;;
60038;SDS011;45916;52.734;6.544;2023-05-19T12:21:21;8.55;;;2.83;;
60038;SDS011;45916;52.734;6.544;2023-05-19T12:23:47;6.93;;;2.60;;
60038;SDS011;45916;52.734;6.544;2023-05-19T12:26:13;11.05;;;3.67;;
60038;SDS011;45916;52.734;6.544;2023-05-19T12:28:39;7.00;;;2.60;;
60038;SDS011;45916;52.734;6.544;2023-05-19T12:31:05;6.68;;;3.10;;
60038;SDS011;45916;52.734;6.544;2023-05-19T12:33:31;7.88;;;2.70;;
60038;SDS011;45916;52.734;6.544;2023-05-19T12:35:58;7.05;;;2.92;;
60038;SDS011;45916;52.734;6.544;2023-05-19T12:38:24;7.03;;;3.13;;
60038;SDS011;45916;52.734;6.544;2023-05-19T12:40:50;8.80;;;4.00;;
60038;SDS011;45916;52.734;6.544;2023-05-19T12:43:20;8.43;;;3.30;;
60038;SDS011;45916;52.734;6.544;2023-05-19T12:45:46;5.85;;;2.80;;
60038;SDS011;45916;52.734;6.544;2023-05-19T12:48:13;6.68;;;2.70;;
60038;SDS011;45916;52.734;6.544;2023-05-19T12:50:42;7.90;;;3.50;;
60038;SDS011;45916;52.734;6.544;2023-05-19T12:53:12;9.23;;;3.37;;
60038;SDS011;45916;52.734;6.544;2023-05-19T12:55:39;8.48;;;3.55;;
60038;SDS011;45916;52.734;6.544;2023-05-19T12:58:08;7.70;;;3.05;;
60038;SDS011;45916;52.734;6.544;2023-05-19T13:00:39;6.18;;;3.08;;
60038;SDS011;45916;52.734;6.544;2023-05-19T13:03:16;6.30;;;3.25;;
60038;SDS011;45916;52.734;6.544;2023-05-19T13:05:43;7.20;;;3.28;;
60038;SDS011;45916;52.734;6.544;2023-05-19T13:08:28;8.65;;;2.83;;
60038;SDS011;45916;52.734;6.544;2023-05-19T13:10:54;8.32;;;3.22;;
60038;SDS011;45916;52.734;6.544;2023-05-19T13:13:20;7.20;;;3.33;;
60038;SDS011;45916;52.734;6.544;2023-05-19T13:15:46;8.48;;;3.38;;
60038;SDS011;45916;52.734;6.544;2023-05-19T13:18:14;7.40;;;3.78;;
60038;SDS011;45916;52.734;6.544;2023-05-19T13:20:42;7.03;;;3.10;;
60038;SDS011;45916;52.734;6.544;2023-05-19T13:23:09;9.20;;;3.58;;
60038;SDS011;45916;52.734;6.544;2023-05-19T13:25:35;7.03;;;3.03;;
60038;SDS011;45916;52.734;6.544;2023-05-19T13:28:01;9.13;;;3.58;;
60038;SDS011;45916;52.734;6.544;2023-05-19T13:30:34;7.93;;;3.63;;
60038;SDS011;45916;52.734;6.544;2023-05-19T13:33:02;9.32;;;4.05;;
60038;SDS011;45916;52.734;6.544;2023-05-19T13:35:28;9.23;;;3.20;;
60038;SDS011;45916;52.734;6.544;2023-05-19T13:37:55;6.63;;;3.35;;
60038;SDS011;45916;52.734;6.544;2023-05-19T13:40:20;8.43;;;3.25;;
60038;SDS011;45916;52.734;6.544;2023-05-19T13:42:47;7.03;;;3.47;;
60038;SDS011;45916;52.734;6.544;2023-05-19T13:45:13;9.13;;;3.55;;
60038;SDS011;45916;52.734;6.544;2023-05-19T13:47:39;7.55;;;3.50;;
60038;SDS011;45916;52.734;6.544;2023-05-19T13:50:05;8.65;;;3.83;;
60038;SDS011;45916;52.734;6.544;2023-05-19T13:52:31;7.32;;;3.45;;
60038;SDS011;45916;52.734;6.544;2023-05-19T13:54:56;8.30;;;3.72;;
60038;SDS011;45916;52.734;6.544;2023-05-19T13:57:22;6.95;;;3.75;;
60038;SDS011;45916;52.734;6.544;2023-05-19T13:59:49;7.70;;;3.95;;
60038;SDS011;45916;52.734;6.544;2023-05-19T14:02:15;6.88;;;3.58;;
60038;SDS011;45916;52.734;6.544;2023-05-19T14:04:40;7.80;;;3.65;;
60038;SDS011;45916;52.734;6.544;2023-05-19T14:07:11;7.55;;;3.67;;
60038;SDS011;45916;52.734;6.544;2023-05-19T14:09:40;7.72;;;3.40;;
60038;SDS011;45916;52.734;6.544;2023-05-19T14:12:05;7.82;;;3.90;;
60038;SDS011;45916;52.734;6.544;2023-05-19T14:14:34;8.05;;;3.88;;
60038;SDS011;45916;52.734;6.544;2023-05-19T14:16:59;7.93;;;4.38;;
60038;SDS011;45916;52.734;6.544;2023-05-19T14:19:26;8.07;;;4.05;;
60038;SDS011;45916;52.734;6.544;2023-05-19T14:21:54;7.78;;;4.32;;
60038;SDS011;45916;52.734;6.544;2023-05-19T14:24:20;8.85;;;3.83;;
60038;SDS011;45916;52.734;6.544;2023-05-19T14:26:46;6.63;;;3.80;;
60038;SDS011;45916;52.734;6.544;2023-05-19T14:29:14;7.93;;;3.97;;
60038;SDS011;45916;52.734;6.544;2023-05-19T14:31:39;7.82;;;3.65;;
60038;SDS011;45916;52.734;6.544;2023-05-19T14:34:05;8.15;;;4.00;;
60038;SDS011;45916;52.734;6.544;2023-05-19T14:36:31;9.10;;;4.47;;
60038;SDS011;45916;52.734;6.544;2023-05-19T14:41:25;9.32;;;4.57;;
60038;SDS011;45916;52.734;6.544;2023-05-19T14:43:51;7.88;;;4.72;;
60038;SDS011;45916;52.734;6.544;2023-05-19T14:46:16;6.60;;;3.80;;
60038;SDS011;45916;52.734;6.544;2023-05-19T14:48:42;6.90;;;3.20;;
60038;SDS011;45916;52.734;6.544;2023-05-19T14:51:08;6.40;;;3.42;;
60038;SDS011;45916;52.734;6.544;2023-05-19T14:53:33;8.40;;;4.50;;
60038;SDS011;45916;52.734;6.544;2023-05-19T14:55:59;6.30;;;4.07;;
60038;SDS011;45916;52.734;6.544;2023-05-19T14:58:25;7.30;;;3.47;;
60038;SDS011;45916;52.734;6.544;2023-05-19T15:00:50;7.30;;;3.42;;
60038;SDS011;45916;52.734;6.544;2023-05-19T15:03:16;6.40;;;3.28;;
60038;SDS011;45916;52.734;6.544;2023-05-19T15:05:42;6.97;;;3.58;;
60038;SDS011;45916;52.734;6.544;2023-05-19T15:08:08;9.00;;;4.70;;
60038;SDS011;45916;52.734;6.544;2023-05-19T15:10:33;7.18;;;4.20;;
60038;SDS011;45916;52.734;6.544;2023-05-19T15:12:59;8.05;;;3.78;;
60038;SDS011;45916;52.734;6.544;2023-05-19T15:15:25;7.45;;;4.00;;
60038;SDS011;45916;52.734;6.544;2023-05-19T15:17:51;8.57;;;3.85;;
60038;SDS011;45916;52.734;6.544;2023-05-19T15:20:17;6.55;;;3.80;;
60038;SDS011;45916;52.734;6.544;2023-05-19T15:22:42;5.85;;;3.47;;